sensor_id;sensor_type;location;lat;lon;timestamp;P1;durP1;ratioP1;P2;durP2;ratioP2
32026;SDS011;18543;50.848;4.596;2023-02-08T00:00:49;7.85;;;5.80;;
32026;SDS011;18543;50.848;4.596;2023-02-08T00:03:18;8.85;;;5.78;;
32026;SDS011;18543;50.848;4.596;2023-02-08T00:05:47;6.68;;;5.70;;
32026;SDS011;18543;50.848;4.596;2023-02-08T00:08:14;7.65;;;5.75;;
32026;SDS011;18543;50.848;4.596;2023-02-08T00:10:41;7.13;;;6.10;;
32026;SDS011;18543;50.848;4.596;2023-02-08T00:13:09;7.38;;;5.97;;
32026;SDS011;18543;50.848;4.596;2023-02-08T00:15:39;7.90;;;5.65;;
32026;SDS011;18543;50.848;4.596;2023-02-08T00:18:07;7.47;;;5.93;;
32026;SDS011;18543;50.848;4.596;2023-02-08T00:20:36;6.55;;;5.47;;
32026;SDS011;18543;50.848;4.596;2023-02-08T00:23:07;7.80;;;5.38;;
32026;SDS011;18543;50.848;4.596;2023-02-08T00:25:35;7.25;;;5.53;;
32026;SDS011;18543;50.848;4.596;2023-02-08T00:28:04;7.43;;;5.80;;
32026;SDS011;18543;50.848;4.596;2023-02-08T00:30:34;7.35;;;5.28;;
32026;SDS011;18543;50.848;4.596;2023-02-08T00:33:02;7.25;;;5.80;;
32026;SDS011;18543;50.848;4.596;2023-02-08T00:35:29;9.75;;;6.47;;
32026;SDS011;18543;50.848;4.596;2023-02-08T00:37:56;8.13;;;5.60;;
32026;SDS011;18543;50.848;4.596;2023-02-08T00:40:23;7.50;;;5.72;;
32026;SDS011;18543;50.848;4.596;2023-02-08T00:42:51;8.90;;;6.05;;
32026;SDS011;18543;50.848;4.596;2023-02-08T00:45:18;6.40;;;5.35;;
32026;SDS011;18543;50.848;4.596;2023-02-08T00:47:44;8.80;;;6.03;;
32026;SDS011;18543;50.848;4.596;2023-02-08T00:50:11;8.32;;;6.00;;
32026;SDS011;18543;50.848;4.596;2023-02-08T00:52:38;7.00;;;5.85;;
32026;SDS011;18543;50.848;4.596;2023-02-08T00:55:05;11.40;;;6.22;;
32026;SDS011;18543;50.848;4.596;2023-02-08T00:57:32;9.40;;;5.80;;
32026;SDS011;18543;50.848;4.596;2023-02-08T00:59:59;8.25;;;5.78;;
32026;SDS011;18543;50.848;4.596;2023-02-08T01:02:29;7.05;;;5.35;;
32026;SDS011;18543;50.848;4.596;2023-02-08T01:04:59;6.18;;;5.57;;
32026;SDS011;18543;50.848;4.596;2023-02-08T01:07:25;7.13;;;5.70;;
32026;SDS011;18543;50.848;4.596;2023-02-08T01:09:52;7.95;;;5.78;;
32026;SDS011;18543;50.848;4.596;2023-02-08T01:12:19;6.28;;;5.60;;
32026;SDS011;18543;50.848;4.596;2023-02-08T01:14:46;7.50;;;6.00;;
32026;SDS011;18543;50.848;4.596;2023-02-08T01:17:13;7.95;;;6.00;;
32026;SDS011;18543;50.848;4.596;2023-02-08T01:19:40;7.88;;;5.88;;
32026;SDS011;18543;50.848;4.596;2023-02-08T01:22:07;7.28;;;5.60;;
32026;SDS011;18543;50.848;4.596;2023-02-08T01:24:34;6.70;;;5.60;;
32026;SDS011;18543;50.848;4.596;2023-02-08T01:27:01;7.65;;;5.95;;
32026;SDS011;18543;50.848;4.596;2023-02-08T01:29:28;7.15;;;5.93;;
32026;SDS011;18543;50.848;4.596;2023-02-08T01:31:55;7.78;;;5.93;;
32026;SDS011;18543;50.848;4.596;2023-02-08T01:34:22;6.55;;;5.25;;
32026;SDS011;18543;50.848;4.596;2023-02-08T01:36:48;7.47;;;5.90;;
32026;SDS011;18543;50.848;4.596;2023-02-08T01:39:15;8.23;;;6.13;;
32026;SDS011;18543;50.848;4.596;2023-02-08T01:41:43;7.60;;;5.85;;
32026;SDS011;18543;50.848;4.596;2023-02-08T01:46:43;7.90;;;5.90;;
32026;SDS011;18543;50.848;4.596;2023-02-08T01:49:20;7.88;;;5.78;;
32026;SDS011;18543;50.848;4.596;2023-02-08T01:54:39;6.82;;;5.50;;
32026;SDS011;18543;50.848;4.596;2023-02-08T01:57:24;6.78;;;5.35;;
32026;SDS011;18543;50.848;4.596;2023-02-08T02:02:22;7.57;;;5.50;;
32026;SDS011;18543;50.848;4.596;2023-02-08T02:04:51;7.63;;;5.70;;
32026;SDS011;18543;50.848;4.596;2023-02-08T02:07:19;8.10;;;6.22;;
32026;SDS011;18543;50.848;4.596;2023-02-08T02:12:45;7.55;;;5.47;;
32026;SDS011;18543;50.848;4.596;2023-02-08T02:15:12;7.70;;;5.77;;
32026;SDS011;18543;50.848;4.596;2023-02-08T02:17:40;6.22;;;5.30;;
32026;SDS011;18543;50.848;4.596;2023-02-08T02:33:19;7.23;;;6.20;;
32026;SDS011;18543;50.848;4.596;2023-02-08T02:44:45;6.45;;;5.18;;
32026;SDS011;18543;50.848;4.596;2023-02-08T02:47:40;6.93;;;5.65;;
32026;SDS011;18543;50.848;4.596;2023-02-08T02:50:51;6.55;;;5.53;;
32026;SDS011;18543;50.848;4.596;2023-02-08T02:56:18;7.32;;;5.60;;
32026;SDS011;18543;50.848;4.596;2023-02-08T02:58:49;6.00;;;5.05;;
32026;SDS011;18543;50.848;4.596;2023-02-08T03:01:21;6.35;;;5.10;;
32026;SDS011;18543;50.848;4.596;2023-02-08T03:03:55;6.70;;;5.40;;
32026;SDS011;18543;50.848;4.596;2023-02-08T03:06:45;6.85;;;5.50;;
32026;SDS011;18543;50.848;4.596;2023-02-08T03:20:19;6.50;;;5.13;;
32026;SDS011;18543;50.848;4.596;2023-02-08T03:25:29;7.03;;;5.63;;
32026;SDS011;18543;50.848;4.596;2023-02-08T03:31:35;6.15;;;5.55;;
32026;SDS011;18543;50.848;4.596;2023-02-08T03:33:48;7.13;;;5.35;;
32026;SDS011;18543;50.848;4.596;2023-02-08T03:36:42;6.13;;;5.30;;
32026;SDS011;18543;50.848;4.596;2023-02-08T03:39:26;6.38;;;5.32;;
32026;SDS011;18543;50.848;4.596;2023-02-08T03:41:57;6.53;;;5.53;;
32026;SDS011;18543;50.848;4.596;2023-02-08T03:44:28;6.10;;;5.25;;
32026;SDS011;18543;50.848;4.596;2023-02-08T03:47:07;7.22;;;5.57;;
32026;SDS011;18543;50.848;4.596;2023-02-08T03:49:39;6.32;;;5.18;;
32026;SDS011;18543;50.848;4.596;2023-02-08T03:52:08;5.85;;;5.22;;
32026;SDS011;18543;50.848;4.596;2023-02-08T03:54:43;8.70;;;5.55;;
32026;SDS011;18543;50.848;4.596;2023-02-08T03:57:20;7.75;;;5.60;;
32026;SDS011;18543;50.848;4.596;2023-02-08T03:59:57;6.35;;;5.45;;
32026;SDS011;18543;50.848;4.596;2023-02-08T04:02:28;7.53;;;5.50;;
32026;SDS011;18543;50.848;4.596;2023-02-08T04:04:58;6.38;;;5.57;;
32026;SDS011;18543;50.848;4.596;2023-02-08T04:09:53;6.75;;;5.13;;
32026;SDS011;18543;50.848;4.596;2023-02-08T04:12:20;6.18;;;5.57;;
32026;SDS011;18543;50.848;4.596;2023-02-08T04:14:47;6.75;;;5.55;;
32026;SDS011;18543;50.848;4.596;2023-02-08T04:17:14;6.53;;;5.53;;
32026;SDS011;18543;50.848;4.596;2023-02-08T04:19:41;8.38;;;5.47;;
32026;SDS011;18543;50.848;4.596;2023-02-08T04:22:07;8.45;;;5.30;;
32026;SDS011;18543;50.848;4.596;2023-02-08T04:24:34;6.47;;;4.95;;
32026;SDS011;18543;50.848;4.596;2023-02-08T04:27:04;6.43;;;5.47;;
32026;SDS011;18543;50.848;4.596;2023-02-08T04:29:31;7.15;;;5.40;;
32026;SDS011;18543;50.848;4.596;2023-02-08T04:31:58;6.28;;;5.45;;
32026;SDS011;18543;50.848;4.596;2023-02-08T04:34:25;6.50;;;5.63;;
32026;SDS011;18543;50.848;4.596;2023-02-08T04:36:52;6.75;;;5.32;;
32026;SDS011;18543;50.848;4.596;2023-02-08T04:39:19;6.47;;;5.10;;
32026;SDS011;18543;50.848;4.596;2023-02-08T04:41:46;6.47;;;5.78;;
32026;SDS011;18543;50.848;4.596;2023-02-08T04:44:12;7.30;;;5.70;;
32026;SDS011;18543;50.848;4.596;2023-02-08T04:46:40;6.50;;;5.22;;
32026;SDS011;18543;50.848;4.596;2023-02-08T04:49:06;6.95;;;5.40;;
32026;SDS011;18543;50.848;4.596;2023-02-08T04:51:33;6.57;;;5.38;;
32026;SDS011;18543;50.848;4.596;2023-02-08T04:54:00;6.75;;;5.60;;
32026;SDS011;18543;50.848;4.596;2023-02-08T04:56:27;7.18;;;5.50;;
32026;SDS011;18543;50.848;4.596;2023-02-08T04:58:54;6.03;;;5.15;;
32026;SDS011;18543;50.848;4.596;2023-02-08T05:01:21;5.55;;;5.03;;
32026;SDS011;18543;50.848;4.596;2023-02-08T05:03:48;7.40;;;5.60;;
32026;SDS011;18543;50.848;4.596;2023-02-08T05:06:14;6.80;;;5.70;;
32026;SDS011;18543;50.848;4.596;2023-02-08T05:08:41;8.05;;;5.00;;
32026;SDS011;18543;50.848;4.596;2023-02-08T05:11:08;5.68;;;4.90;;
32026;SDS011;18543;50.848;4.596;2023-02-08T05:13:38;6.18;;;5.00;;
32026;SDS011;18543;50.848;4.596;2023-02-08T05:16:04;6.38;;;5.50;;
32026;SDS011;18543;50.848;4.596;2023-02-08T05:18:31;5.43;;;4.85;;
32026;SDS011;18543;50.848;4.596;2023-02-08T05:20:59;7.20;;;5.53;;
32026;SDS011;18543;50.848;4.596;2023-02-08T05:23:26;6.18;;;5.28;;
32026;SDS011;18543;50.848;4.596;2023-02-08T05:25:53;5.20;;;4.70;;
32026;SDS011;18543;50.848;4.596;2023-02-08T05:28:20;7.22;;;5.60;;
32026;SDS011;18543;50.848;4.596;2023-02-08T05:30:47;6.00;;;4.57;;
32026;SDS011;18543;50.848;4.596;2023-02-08T05:33:14;6.15;;;5.35;;
32026;SDS011;18543;50.848;4.596;2023-02-08T05:35:43;6.25;;;5.30;;
32026;SDS011;18543;50.848;4.596;2023-02-08T05:38:10;6.80;;;5.03;;
32026;SDS011;18543;50.848;4.596;2023-02-08T05:40:37;6.20;;;4.97;;
32026;SDS011;18543;50.848;4.596;2023-02-08T05:43:04;6.85;;;5.60;;
32026;SDS011;18543;50.848;4.596;2023-02-08T05:45:32;6.75;;;5.20;;
32026;SDS011;18543;50.848;4.596;2023-02-08T05:47:59;5.93;;;5.05;;
32026;SDS011;18543;50.848;4.596;2023-02-08T05:50:26;6.70;;;5.30;;
32026;SDS011;18543;50.848;4.596;2023-02-08T05:52:52;5.82;;;5.22;;
32026;SDS011;18543;50.848;4.596;2023-02-08T05:55:19;6.13;;;5.13;;
32026;SDS011;18543;50.848;4.596;2023-02-08T05:57:46;6.35;;;4.90;;
32026;SDS011;18543;50.848;4.596;2023-02-08T06:00:13;6.33;;;5.00;;
32026;SDS011;18543;50.848;4.596;2023-02-08T06:02:40;5.80;;;5.20;;
32026;SDS011;18543;50.848;4.596;2023-02-08T06:05:07;6.68;;;5.00;;
32026;SDS011;18543;50.848;4.596;2023-02-08T06:07:34;6.13;;;5.15;;
32026;SDS011;18543;50.848;4.596;2023-02-08T06:10:01;6.13;;;5.18;;
32026;SDS011;18543;50.848;4.596;2023-02-08T06:12:29;7.78;;;5.20;;
32026;SDS011;18543;50.848;4.596;2023-02-08T06:14:55;5.70;;;4.88;;
32026;SDS011;18543;50.848;4.596;2023-02-08T06:17:22;5.75;;;5.18;;
32026;SDS011;18543;50.848;4.596;2023-02-08T06:19:49;6.20;;;4.78;;
32026;SDS011;18543;50.848;4.596;2023-02-08T06:22:16;9.02;;;5.32;;
32026;SDS011;18543;50.848;4.596;2023-02-08T06:24:43;6.35;;;5.00;;
32026;SDS011;18543;50.848;4.596;2023-02-08T06:27:13;5.57;;;4.78;;
32026;SDS011;18543;50.848;4.596;2023-02-08T06:29:40;6.18;;;4.72;;
32026;SDS011;18543;50.848;4.596;2023-02-08T06:32:07;6.57;;;4.88;;
32026;SDS011;18543;50.848;4.596;2023-02-08T06:34:34;6.75;;;5.10;;
32026;SDS011;18543;50.848;4.596;2023-02-08T06:37:01;5.13;;;4.63;;
32026;SDS011;18543;50.848;4.596;2023-02-08T06:39:30;6.40;;;5.10;;
32026;SDS011;18543;50.848;4.596;2023-02-08T06:41:57;6.43;;;5.10;;
32026;SDS011;18543;50.848;4.596;2023-02-08T06:44:24;5.63;;;5.05;;
32026;SDS011;18543;50.848;4.596;2023-02-08T06:46:51;6.60;;;5.22;;
32026;SDS011;18543;50.848;4.596;2023-02-08T06:49:21;5.50;;;4.88;;
32026;SDS011;18543;50.848;4.596;2023-02-08T06:51:48;8.95;;;5.32;;
32026;SDS011;18543;50.848;4.596;2023-02-08T06:54:15;6.70;;;5.43;;
32026;SDS011;18543;50.848;4.596;2023-02-08T06:56:44;11.98;;;5.85;;
32026;SDS011;18543;50.848;4.596;2023-02-08T06:59:10;12.48;;;7.35;;
32026;SDS011;18543;50.848;4.596;2023-02-08T07:01:37;16.55;;;9.07;;
32026;SDS011;18543;50.848;4.596;2023-02-08T07:04:06;15.75;;;8.85;;
32026;SDS011;18543;50.848;4.596;2023-02-08T07:06:36;16.77;;;9.15;;
32026;SDS011;18543;50.848;4.596;2023-02-08T07:09:03;19.33;;;10.00;;
32026;SDS011;18543;50.848;4.596;2023-02-08T07:11:29;25.33;;;11.05;;
32026;SDS011;18543;50.848;4.596;2023-02-08T07:13:56;17.27;;;9.95;;
32026;SDS011;18543;50.848;4.596;2023-02-08T07:16:26;21.38;;;11.23;;
32026;SDS011;18543;50.848;4.596;2023-02-08T07:18:53;17.95;;;10.25;;
32026;SDS011;18543;50.848;4.596;2023-02-08T07:21:19;18.92;;;10.55;;
32026;SDS011;18543;50.848;4.596;2023-02-08T07:23:46;17.67;;;10.45;;
32026;SDS011;18543;50.848;4.596;2023-02-08T07:26:13;15.57;;;10.00;;
32026;SDS011;18543;50.848;4.596;2023-02-08T07:28:40;16.60;;;9.77;;
32026;SDS011;18543;50.848;4.596;2023-02-08T07:31:08;16.08;;;10.13;;
32026;SDS011;18543;50.848;4.596;2023-02-08T07:33:40;18.85;;;9.75;;
32026;SDS011;18543;50.848;4.596;2023-02-08T07:36:07;16.42;;;8.82;;
32026;SDS011;18543;50.848;4.596;2023-02-08T07:41:08;16.70;;;8.90;;
32026;SDS011;18543;50.848;4.596;2023-02-08T07:43:37;16.73;;;9.60;;
32026;SDS011;18543;50.848;4.596;2023-02-08T07:46:13;17.73;;;9.82;;
32026;SDS011;18543;50.848;4.596;2023-02-08T07:48:42;18.73;;;8.40;;
32026;SDS011;18543;50.848;4.596;2023-02-08T07:51:09;17.67;;;9.57;;
32026;SDS011;18543;50.848;4.596;2023-02-08T07:53:37;19.05;;;9.57;;
32026;SDS011;18543;50.848;4.596;2023-02-08T07:56:04;18.83;;;8.60;;
32026;SDS011;18543;50.848;4.596;2023-02-08T07:58:31;17.90;;;9.80;;
32026;SDS011;18543;50.848;4.596;2023-02-08T08:00:58;17.00;;;8.77;;
32026;SDS011;18543;50.848;4.596;2023-02-08T08:03:41;16.65;;;9.02;;
32026;SDS011;18543;50.848;4.596;2023-02-08T08:06:08;14.43;;;8.38;;
32026;SDS011;18543;50.848;4.596;2023-02-08T08:08:34;14.00;;;8.15;;
32026;SDS011;18543;50.848;4.596;2023-02-08T08:11:01;15.20;;;7.93;;
32026;SDS011;18543;50.848;4.596;2023-02-08T08:13:29;15.23;;;8.18;;
32026;SDS011;18543;50.848;4.596;2023-02-08T08:15:56;15.45;;;8.73;;
32026;SDS011;18543;50.848;4.596;2023-02-08T08:18:23;16.27;;;8.07;;
32026;SDS011;18543;50.848;4.596;2023-02-08T08:20:50;13.07;;;8.30;;
32026;SDS011;18543;50.848;4.596;2023-02-08T08:23:17;17.98;;;8.50;;
32026;SDS011;18543;50.848;4.596;2023-02-08T08:25:44;14.82;;;8.88;;
32026;SDS011;18543;50.848;4.596;2023-02-08T08:28:12;16.87;;;8.27;;
32026;SDS011;18543;50.848;4.596;2023-02-08T08:30:41;14.15;;;8.02;;
32026;SDS011;18543;50.848;4.596;2023-02-08T08:33:10;13.55;;;8.55;;
32026;SDS011;18543;50.848;4.596;2023-02-08T08:35:40;14.88;;;8.70;;
32026;SDS011;18543;50.848;4.596;2023-02-08T08:38:08;12.55;;;8.40;;
32026;SDS011;18543;50.848;4.596;2023-02-08T08:40:35;13.57;;;7.95;;
32026;SDS011;18543;50.848;4.596;2023-02-08T08:43:02;13.73;;;8.25;;
32026;SDS011;18543;50.848;4.596;2023-02-08T08:45:29;14.90;;;8.73;;
32026;SDS011;18543;50.848;4.596;2023-02-08T08:47:56;14.20;;;8.05;;
32026;SDS011;18543;50.848;4.596;2023-02-08T08:50:25;15.10;;;7.93;;
32026;SDS011;18543;50.848;4.596;2023-02-08T08:52:52;12.30;;;7.63;;
32026;SDS011;18543;50.848;4.596;2023-02-08T08:55:19;13.05;;;7.85;;
32026;SDS011;18543;50.848;4.596;2023-02-08T08:57:48;10.80;;;7.82;;
32026;SDS011;18543;50.848;4.596;2023-02-08T09:00:18;12.18;;;7.80;;
32026;SDS011;18543;50.848;4.596;2023-02-08T09:05:13;10.82;;;7.60;;
32026;SDS011;18543;50.848;4.596;2023-02-08T09:07:40;11.95;;;7.63;;
32026;SDS011;18543;50.848;4.596;2023-02-08T09:10:07;13.85;;;7.95;;
32026;SDS011;18543;50.848;4.596;2023-02-08T09:12:34;10.70;;;7.93;;
32026;SDS011;18543;50.848;4.596;2023-02-08T09:15:01;11.02;;;7.68;;
32026;SDS011;18543;50.848;4.596;2023-02-08T09:17:28;11.70;;;7.00;;
32026;SDS011;18543;50.848;4.596;2023-02-08T09:19:55;11.23;;;7.82;;
32026;SDS011;18543;50.848;4.596;2023-02-08T09:22:22;12.23;;;7.70;;
32026;SDS011;18543;50.848;4.596;2023-02-08T09:24:51;11.07;;;7.38;;
32026;SDS011;18543;50.848;4.596;2023-02-08T09:27:20;9.73;;;7.30;;
32026;SDS011;18543;50.848;4.596;2023-02-08T09:29:47;11.30;;;7.15;;
32026;SDS011;18543;50.848;4.596;2023-02-08T09:32:15;10.45;;;7.45;;
32026;SDS011;18543;50.848;4.596;2023-02-08T09:34:42;9.35;;;7.60;;
32026;SDS011;18543;50.848;4.596;2023-02-08T09:37:11;12.65;;;7.43;;
32026;SDS011;18543;50.848;4.596;2023-02-08T09:39:38;10.32;;;7.35;;
32026;SDS011;18543;50.848;4.596;2023-02-08T09:50:37;9.55;;;6.78;;
32026;SDS011;18543;50.848;4.596;2023-02-08T09:53:14;10.85;;;7.30;;
32026;SDS011;18543;50.848;4.596;2023-02-08T09:55:47;11.38;;;7.00;;
32026;SDS011;18543;50.848;4.596;2023-02-08T09:58:25;8.48;;;6.22;;
32026;SDS011;18543;50.848;4.596;2023-02-08T10:01:00;9.52;;;6.70;;
32026;SDS011;18543;50.848;4.596;2023-02-08T10:03:32;10.40;;;6.88;;
32026;SDS011;18543;50.848;4.596;2023-02-08T10:06:05;9.77;;;6.22;;
32026;SDS011;18543;50.848;4.596;2023-02-08T10:08:36;9.93;;;6.75;;
32026;SDS011;18543;50.848;4.596;2023-02-08T10:19:03;8.15;;;6.00;;
32026;SDS011;18543;50.848;4.596;2023-02-08T10:21:37;8.38;;;5.70;;
32026;SDS011;18543;50.848;4.596;2023-02-08T10:26:46;8.50;;;5.60;;
32026;SDS011;18543;50.848;4.596;2023-02-08T10:39:48;9.68;;;5.88;;
32026;SDS011;18543;50.848;4.596;2023-02-08T10:42:16;7.28;;;5.75;;
32026;SDS011;18543;50.848;4.596;2023-02-08T10:47:56;8.88;;;5.75;;
32026;SDS011;18543;50.848;4.596;2023-02-08T10:50:34;9.00;;;5.97;;
32026;SDS011;18543;50.848;4.596;2023-02-08T10:53:09;8.07;;;5.50;;
32026;SDS011;18543;50.848;4.596;2023-02-08T10:55:43;7.63;;;5.53;;
32026;SDS011;18543;50.848;4.596;2023-02-08T10:58:22;7.10;;;5.28;;
32026;SDS011;18543;50.848;4.596;2023-02-08T11:00:51;7.78;;;5.38;;
32026;SDS011;18543;50.848;4.596;2023-02-08T11:03:21;7.00;;;5.22;;
32026;SDS011;18543;50.848;4.596;2023-02-08T11:05:50;7.97;;;5.40;;
32026;SDS011;18543;50.848;4.596;2023-02-08T11:08:23;6.68;;;5.30;;
32026;SDS011;18543;50.848;4.596;2023-02-08T11:16:03;6.88;;;5.25;;
32026;SDS011;18543;50.848;4.596;2023-02-08T11:19:06;8.18;;;5.13;;
32026;SDS011;18543;50.848;4.596;2023-02-08T11:21:27;6.03;;;4.85;;
32026;SDS011;18543;50.848;4.596;2023-02-08T11:24:01;8.45;;;5.47;;
32026;SDS011;18543;50.848;4.596;2023-02-08T11:26:41;8.82;;;5.03;;
32026;SDS011;18543;50.848;4.596;2023-02-08T11:29:18;7.93;;;4.85;;
32026;SDS011;18543;50.848;4.596;2023-02-08T11:34:31;6.97;;;4.93;;
32026;SDS011;18543;50.848;4.596;2023-02-08T11:37:01;8.52;;;5.15;;
32026;SDS011;18543;50.848;4.596;2023-02-08T11:41:57;9.85;;;4.85;;
32026;SDS011;18543;50.848;4.596;2023-02-08T11:44:31;7.95;;;4.93;;
32026;SDS011;18543;50.848;4.596;2023-02-08T11:47:05;12.90;;;5.28;;
32026;SDS011;18543;50.848;4.596;2023-02-08T11:49:40;15.00;;;5.25;;
32026;SDS011;18543;50.848;4.596;2023-02-08T11:52:18;8.30;;;4.97;;
32026;SDS011;18543;50.848;4.596;2023-02-08T11:55:09;12.32;;;5.40;;
32026;SDS011;18543;50.848;4.596;2023-02-08T11:58:34;12.65;;;4.55;;
32026;SDS011;18543;50.848;4.596;2023-02-08T12:03:45;13.95;;;5.03;;
32026;SDS011;18543;50.848;4.596;2023-02-08T12:06:29;13.88;;;4.85;;
32026;SDS011;18543;50.848;4.596;2023-02-08T12:25:55;15.95;;;4.53;;
32026;SDS011;18543;50.848;4.596;2023-02-08T12:28:34;13.85;;;4.95;;
32026;SDS011;18543;50.848;4.596;2023-02-08T12:43:23;13.63;;;5.28;;
32026;SDS011;18543;50.848;4.596;2023-02-08T12:51:12;12.27;;;4.82;;
32026;SDS011;18543;50.848;4.596;2023-02-08T12:53:56;14.60;;;4.93;;
32026;SDS011;18543;50.848;4.596;2023-02-08T12:56:34;11.00;;;4.38;;
32026;SDS011;18543;50.848;4.596;2023-02-08T12:59:04;8.07;;;4.05;;
32026;SDS011;18543;50.848;4.596;2023-02-08T13:01:43;8.82;;;3.83;;
32026;SDS011;18543;50.848;4.596;2023-02-08T13:04:20;5.30;;;4.07;;
32026;SDS011;18543;50.848;4.596;2023-02-08T13:06:53;5.35;;;3.78;;
32026;SDS011;18543;50.848;4.596;2023-02-08T13:12:13;13.02;;;4.18;;
32026;SDS011;18543;50.848;4.596;2023-02-08T13:14:51;11.52;;;3.97;;
32026;SDS011;18543;50.848;4.596;2023-02-08T13:17:43;8.82;;;4.15;;
32026;SDS011;18543;50.848;4.596;2023-02-08T13:20:47;5.05;;;3.50;;
32026;SDS011;18543;50.848;4.596;2023-02-08T13:26:24;9.13;;;3.50;;
32026;SDS011;18543;50.848;4.596;2023-02-08T13:28:57;10.15;;;3.60;;
32026;SDS011;18543;50.848;4.596;2023-02-08T13:31:37;11.07;;;3.72;;
32026;SDS011;18543;50.848;4.596;2023-02-08T13:34:17;9.45;;;3.58;;
32026;SDS011;18543;50.848;4.596;2023-02-08T13:37:16;13.15;;;3.65;;
32026;SDS011;18543;50.848;4.596;2023-02-08T13:39:57;8.40;;;3.72;;
32026;SDS011;18543;50.848;4.596;2023-02-08T13:42:29;11.13;;;3.50;;
32026;SDS011;18543;50.848;4.596;2023-02-08T13:44:58;8.10;;;3.67;;
32026;SDS011;18543;50.848;4.596;2023-02-08T13:47:27;9.63;;;3.53;;
32026;SDS011;18543;50.848;4.596;2023-02-08T13:50:03;11.05;;;3.55;;
32026;SDS011;18543;50.848;4.596;2023-02-08T13:52:54;9.20;;;3.28;;
32026;SDS011;18543;50.848;4.596;2023-02-08T13:57:57;9.80;;;3.60;;
32026;SDS011;18543;50.848;4.596;2023-02-08T14:00:34;7.60;;;3.10;;
32026;SDS011;18543;50.848;4.596;2023-02-08T14:05:34;8.30;;;4.50;;
32026;SDS011;18543;50.848;4.596;2023-02-08T14:14:03;9.45;;;4.13;;
32026;SDS011;18543;50.848;4.596;2023-02-08T14:16:46;9.68;;;3.63;;
32026;SDS011;18543;50.848;4.596;2023-02-08T14:19:44;8.57;;;3.50;;
32026;SDS011;18543;50.848;4.596;2023-02-08T14:22:20;8.35;;;3.58;;
32026;SDS011;18543;50.848;4.596;2023-02-08T14:24:48;8.57;;;3.53;;
32026;SDS011;18543;50.848;4.596;2023-02-08T14:27:37;10.23;;;3.88;;
32026;SDS011;18543;50.848;4.596;2023-02-08T14:32:43;9.32;;;3.50;;
32026;SDS011;18543;50.848;4.596;2023-02-08T14:37:48;10.00;;;3.80;;
32026;SDS011;18543;50.848;4.596;2023-02-08T14:45:46;7.18;;;3.40;;
32026;SDS011;18543;50.848;4.596;2023-02-08T14:48:16;7.45;;;3.10;;
32026;SDS011;18543;50.848;4.596;2023-02-08T14:56:20;5.85;;;3.15;;
32026;SDS011;18543;50.848;4.596;2023-02-08T14:58:55;9.10;;;3.60;;
32026;SDS011;18543;50.848;4.596;2023-02-08T15:03:53;7.55;;;3.50;;
32026;SDS011;18543;50.848;4.596;2023-02-08T15:11:39;7.75;;;3.13;;
32026;SDS011;18543;50.848;4.596;2023-02-08T15:14:06;8.90;;;3.15;;
32026;SDS011;18543;50.848;4.596;2023-02-08T15:16:44;7.85;;;3.13;;
32026;SDS011;18543;50.848;4.596;2023-02-08T15:19:17;4.82;;;3.15;;
32026;SDS011;18543;50.848;4.596;2023-02-08T15:21:51;6.03;;;3.25;;
32026;SDS011;18543;50.848;4.596;2023-02-08T15:24:20;6.15;;;3.20;;
32026;SDS011;18543;50.848;4.596;2023-02-08T15:26:52;6.22;;;2.88;;
32026;SDS011;18543;50.848;4.596;2023-02-08T15:29:29;4.85;;;3.15;;
32026;SDS011;18543;50.848;4.596;2023-02-08T15:32:13;8.98;;;3.15;;
32026;SDS011;18543;50.848;4.596;2023-02-08T15:34:43;40.55;;;5.15;;
32026;SDS011;18543;50.848;4.596;2023-02-08T15:37:16;21.67;;;4.28;;
32026;SDS011;18543;50.848;4.596;2023-02-08T15:39:44;16.80;;;4.45;;
32026;SDS011;18543;50.848;4.596;2023-02-08T15:42:20;24.15;;;4.15;;
32026;SDS011;18543;50.848;4.596;2023-02-08T15:44:49;15.88;;;3.72;;
32026;SDS011;18543;50.848;4.596;2023-02-08T15:47:18;15.23;;;3.80;;
32026;SDS011;18543;50.848;4.596;2023-02-08T15:49:48;13.27;;;3.50;;
32026;SDS011;18543;50.848;4.596;2023-02-08T15:52:19;9.98;;;3.42;;
32026;SDS011;18543;50.848;4.596;2023-02-08T15:54:51;30.27;;;4.80;;
32026;SDS011;18543;50.848;4.596;2023-02-08T15:57:31;15.52;;;4.35;;
32026;SDS011;18543;50.848;4.596;2023-02-08T16:00:03;13.90;;;3.40;;
32026;SDS011;18543;50.848;4.596;2023-02-08T16:02:38;16.23;;;4.10;;
32026;SDS011;18543;50.848;4.596;2023-02-08T16:05:19;13.50;;;3.78;;
32026;SDS011;18543;50.848;4.596;2023-02-08T16:07:52;11.65;;;3.63;;
32026;SDS011;18543;50.848;4.596;2023-02-08T16:12:58;16.08;;;3.65;;
32026;SDS011;18543;50.848;4.596;2023-02-08T16:18:02;14.88;;;4.00;;
32026;SDS011;18543;50.848;4.596;2023-02-08T16:20:31;10.05;;;3.40;;
32026;SDS011;18543;50.848;4.596;2023-02-08T16:23:24;11.77;;;3.22;;
32026;SDS011;18543;50.848;4.596;2023-02-08T16:25:52;6.18;;;3.03;;
32026;SDS011;18543;50.848;4.596;2023-02-08T16:28:29;12.45;;;3.15;;
32026;SDS011;18543;50.848;4.596;2023-02-08T16:30:58;8.07;;;3.05;;
32026;SDS011;18543;50.848;4.596;2023-02-08T16:33:27;12.45;;;3.47;;
32026;SDS011;18543;50.848;4.596;2023-02-08T16:35:56;5.72;;;2.78;;
32026;SDS011;18543;50.848;4.596;2023-02-08T16:38:27;12.45;;;3.40;;
32026;SDS011;18543;50.848;4.596;2023-02-08T16:40:57;20.70;;;4.28;;
32026;SDS011;18543;50.848;4.596;2023-02-08T16:43:38;16.05;;;3.53;;
32026;SDS011;18543;50.848;4.596;2023-02-08T16:48:37;12.45;;;3.70;;
32026;SDS011;18543;50.848;4.596;2023-02-08T16:51:06;13.95;;;3.25;;
32026;SDS011;18543;50.848;4.596;2023-02-08T16:53:40;11.57;;;3.50;;
32026;SDS011;18543;50.848;4.596;2023-02-08T16:56:08;13.45;;;3.78;;
32026;SDS011;18543;50.848;4.596;2023-02-08T16:58:36;13.57;;;3.20;;
32026;SDS011;18543;50.848;4.596;2023-02-08T17:01:04;10.17;;;3.10;;
32026;SDS011;18543;50.848;4.596;2023-02-08T17:03:33;11.38;;;3.40;;
32026;SDS011;18543;50.848;4.596;2023-02-08T17:06:03;9.07;;;3.72;;
32026;SDS011;18543;50.848;4.596;2023-02-08T17:08:31;8.45;;;3.28;;
32026;SDS011;18543;50.848;4.596;2023-02-08T17:11:01;5.95;;;2.80;;
32026;SDS011;18543;50.848;4.596;2023-02-08T17:13:27;9.52;;;2.90;;
32026;SDS011;18543;50.848;4.596;2023-02-08T17:15:56;8.70;;;2.72;;
32026;SDS011;18543;50.848;4.596;2023-02-08T17:18:25;9.55;;;3.20;;
32026;SDS011;18543;50.848;4.596;2023-02-08T17:20:52;7.15;;;2.75;;
32026;SDS011;18543;50.848;4.596;2023-02-08T17:23:24;8.23;;;2.88;;
32026;SDS011;18543;50.848;4.596;2023-02-08T17:25:52;13.57;;;3.40;;
32026;SDS011;18543;50.848;4.596;2023-02-08T17:28:19;13.75;;;3.13;;
32026;SDS011;18543;50.848;4.596;2023-02-08T17:30:47;10.73;;;3.20;;
32026;SDS011;18543;50.848;4.596;2023-02-08T17:33:15;15.98;;;3.30;;
32026;SDS011;18543;50.848;4.596;2023-02-08T17:35:46;13.10;;;3.25;;
32026;SDS011;18543;50.848;4.596;2023-02-08T17:38:14;11.25;;;3.00;;
32026;SDS011;18543;50.848;4.596;2023-02-08T17:40:42;9.75;;;3.00;;
32026;SDS011;18543;50.848;4.596;2023-02-08T17:43:10;12.13;;;3.20;;
32026;SDS011;18543;50.848;4.596;2023-02-08T17:45:38;9.77;;;2.97;;
32026;SDS011;18543;50.848;4.596;2023-02-08T17:48:06;8.25;;;2.80;;
32026;SDS011;18543;50.848;4.596;2023-02-08T17:50:34;19.35;;;3.40;;
32026;SDS011;18543;50.848;4.596;2023-02-08T17:53:03;18.40;;;5.45;;
32026;SDS011;18543;50.848;4.596;2023-02-08T17:55:32;21.30;;;6.55;;
32026;SDS011;18543;50.848;4.596;2023-02-08T17:57:59;26.52;;;8.95;;
32026;SDS011;18543;50.848;4.596;2023-02-08T18:00:26;23.42;;;9.27;;
32026;SDS011;18543;50.848;4.596;2023-02-08T18:02:53;22.40;;;9.13;;
32026;SDS011;18543;50.848;4.596;2023-02-08T18:05:22;23.80;;;9.02;;
32026;SDS011;18543;50.848;4.596;2023-02-08T18:07:50;23.50;;;9.52;;
32026;SDS011;18543;50.848;4.596;2023-02-08T18:10:18;21.05;;;9.23;;
32026;SDS011;18543;50.848;4.596;2023-02-08T18:12:45;23.67;;;9.70;;